Aultman, Pennsylvania
Current Conditions -  °F | °C
As of 1:55 AM on Monday 24 Nov 2014 (Local Time) from KIDI Reporting Station
Overcast Overcast  
Wind Chill: 54°   Ceiling: 6000
Heat Index: 54°   Visibility: 10mi
Dew Point: 50°   Wind: 20mph
Humidity: 88%   Direction: 160°SSE
Pressure: 29.52"   Gusts: 35mph
Location:  40.56°N, 79.26°W
Report Text: KIDI 240655Z AUTO 16017G30KT 10SM BKN060 OVC070 12/10 A2952 RMK A01
Loading
Personal Weather Stations






























Interactive Weather Map New forecast layout! Learn more

10-Day Weather Forecast

Advertisements
Track Severe Weather on mobile